Terminal Aerodrome Forecast
Issued by NWS Chicago, IL

Home | Current Version | Previous Version | Graphics & Text | Print | Product List | Glossary Off
Versions: 1 2 3 4 5 6 7 8 9 10 11 12 13 14 15 16 17 18 19 20 21 22 23 24

000
FTUS43 KLOT 261738
TAFRFD
TAF
KRFD 261738Z 2618/2718 21005KT P6SM FEW030 SCT080 OVC250
     FM262300 15004KT 6SM SHRA VCTS SCT040CB OVC080
     FM270200 05004KT 6SM BR VCSH SCT025 OVC040
     FM270700 04005KT 4SM BR OVC025
     FM271400 04006KT P6SM FEW030 BKN050=

USA.gov is the U.S. government's official web portal to all federal, state and local government web resources and services.